CheckWX is a tool to help pilots better visualize weather data.  It is not intended as a substitute for an official pre-flight weather briefing.

23:34:58 UTC

EGVN METAR
RAF Brize Norton Airport
Brize Norton, United Kingdom
Current

45 mins ago

EGVN 182250Z 21007KT CAVOK 10/07 Q0997 NOSIG
Observed
Oct-18 @ 22:50 UTC
Wind
  • 210° at 7 KTS
Visibility
10,000+ meters
Flight Rules
VFR
Cloud Levels
  • Clear skies
Temperature
10°C / 50°F
Dewpoint
C / 45°F
Humidity
82%
Altimeter
29.44" Hg
Pressure
996.92 hPa
Previous

45 mins ago

EGVN 182250Z 21007KT CAVOK 10/07 Q0997 NOSIG RMK BLU BLU
Observed
Oct-18 @ 22:50 UTC
Wind
  • 210° at 7 KTS
Visibility
10,000+ meters
Flight Rules
VFR
Cloud Levels
  • Clear skies
Temperature
10°C / 50°F
Dewpoint
C / 45°F
Humidity
82%
Altimeter
29.44" Hg
Pressure
996.92 hPa
Previous

2 hours ago

EGVN 182150Z 21006KT 9999 FEW025 10/08 Q0997 NOSIG RMK BLU BLU
Observed
Oct-18 @ 21:50 UTC
Wind
  • 210° at 6 KTS
Visibility
10,000+ meters
Flight Rules
VFR
Cloud Levels
  • Few at 2,500' AGL
Temperature
10°C / 50°F
Dewpoint
C / 46°F
Humidity
88%
Altimeter
29.44" Hg
Pressure
996.92 hPa